createdAt,value
2024-02-03T00:01:14.777Z,5.22
2024-02-03T00:06:18.231Z,5.24
2024-02-03T00:11:23.334Z,5.31
2024-02-03T00:16:28.424Z,5.34
2024-02-03T00:21:32.007Z,5.51
2024-02-03T00:26:35.619Z,5.62
2024-02-03T00:31:39.194Z,5.70
2024-02-03T00:36:45.761Z,5.83
2024-02-03T00:41:49.418Z,5.94
2024-02-03T00:46:53.009Z,6.09
2024-02-03T00:51:56.470Z,6.23
2024-02-03T00:57:00.000Z,6.33
2024-02-03T01:02:03.762Z,6.41
2024-02-03T01:07:08.114Z,6.46
2024-02-03T01:12:11.954Z,6.48
2024-02-03T01:17:15.616Z,6.44
2024-02-03T01:22:19.073Z,6.47
2024-02-03T01:27:22.481Z,6.46
2024-02-03T01:32:26.104Z,6.48
2024-02-03T01:37:29.672Z,6.51
2024-02-03T01:42:33.106Z,6.50
2024-02-03T01:47:36.518Z,6.54
2024-02-03T01:52:40.676Z,6.57
2024-02-03T01:57:46.494Z,6.60
2024-02-03T02:02:49.903Z,6.60
2024-02-03T02:07:53.317Z,6.60
2024-02-03T02:12:57.038Z,6.62
2024-02-03T02:18:01.767Z,6.66
2024-02-03T02:23:05.371Z,6.66
2024-02-03T02:28:09.030Z,6.69
2024-02-03T02:33:13.256Z,6.73
2024-02-03T02:38:20.880Z,6.74
2024-02-03T02:43:24.247Z,6.70
2024-02-03T02:48:28.133Z,6.74
2024-02-03T02:53:31.608Z,6.82
2024-02-03T02:58:35.067Z,6.88
2024-02-03T03:03:38.717Z,6.95
2024-02-03T03:08:42.244Z,7.04
2024-02-03T03:13:45.726Z,7.10
2024-02-03T03:18:49.421Z,7.15
2024-02-03T03:23:53.011Z,7.31
2024-02-03T03:28:56.449Z,7.35
2024-02-03T03:33:59.967Z,7.45
2024-02-03T03:39:04.039Z,7.55
2024-02-03T03:44:07.295Z,7.60
2024-02-03T03:49:10.816Z,7.69
2024-02-03T03:54:15.177Z,7.69
2024-02-03T03:59:18.522Z,7.76
2024-02-03T04:04:22.324Z,7.81
2024-02-03T04:09:26.076Z,7.82
2024-02-03T04:14:29.631Z,7.83
2024-02-03T04:19:33.314Z,7.84
2024-02-03T04:24:37.588Z,7.84
2024-02-03T04:29:41.025Z,7.78
2024-02-03T04:34:45.552Z,7.87
2024-02-03T04:39:49.963Z,7.83
2024-02-03T04:44:54.079Z,7.76
2024-02-03T04:49:57.814Z,7.75
2024-02-03T04:55:01.243Z,7.69
2024-02-03T05:00:05.986Z,7.73
2024-02-03T05:05:09.973Z,7.71
2024-02-03T05:10:14.307Z,7.64
2024-02-03T05:15:19.814Z,7.60
2024-02-03T05:20:23.125Z,7.56
2024-02-03T05:25:26.518Z,7.58
2024-02-03T05:30:29.788Z,7.58
2024-02-03T05:35:33.315Z,7.59
2024-02-03T05:40:36.751Z,7.52
2024-02-03T05:45:40.395Z,7.54
2024-02-03T05:50:44.061Z,7.53
2024-02-03T05:55:48.282Z,7.47
2024-02-03T06:00:51.842Z,7.46
2024-02-03T06:06:12.232Z,7.41
2024-02-03T06:11:19.416Z,7.39
2024-02-03T06:16:22.948Z,7.36
2024-02-03T06:21:26.386Z,7.35
2024-02-03T06:26:32.081Z,7.36
2024-02-03T06:31:35.745Z,7.39
2024-02-03T06:36:39.365Z,7.43
2024-02-03T06:41:43.028Z,7.45
2024-02-03T06:46:46.364Z,7.54
2024-02-03T06:51:50.178Z,7.60
2024-02-03T06:56:53.693Z,7.68
2024-02-03T07:01:57.234Z,7.74
2024-02-03T07:07:00.828Z,7.79
2024-02-03T07:12:08.210Z,7.83
2024-02-03T07:17:12.142Z,7.84
2024-02-03T07:22:15.649Z,7.89
2024-02-03T07:27:19.255Z,7.90
2024-02-03T07:32:22.766Z,7.88
2024-02-03T07:37:26.161Z,7.92
2024-02-03T07:42:29.539Z,7.91
2024-02-03T07:47:34.419Z,7.91
2024-02-03T07:52:37.928Z,7.93
2024-02-03T07:57:41.178Z,7.92
2024-02-03T08:02:44.954Z,7.95
2024-02-03T08:07:49.790Z,8.01
2024-02-03T08:12:53.472Z,8.09
2024-02-03T08:17:56.924Z,8.16
2024-02-03T08:23:00.428Z,8.22
2024-02-03T08:28:04.711Z,8.31
2024-02-03T08:33:13.448Z,8.38
2024-02-03T08:38:17.438Z,8.44
2024-02-03T08:43:20.830Z,8.48
2024-02-03T08:48:24.574Z,8.50
2024-02-03T08:53:28.448Z,8.47
2024-02-03T08:58:32.633Z,8.47
2024-02-03T09:03:36.152Z,8.47
2024-02-03T09:08:40.057Z,8.46
2024-02-03T09:13:43.667Z,8.49
2024-02-03T09:18:47.545Z,8.52
2024-02-03T09:23:51.417Z,8.56
2024-02-03T09:28:57.151Z,8.56
2024-02-03T09:34:04.877Z,8.55
2024-02-03T09:39:09.252Z,8.50
2024-02-03T09:44:13.611Z,8.50
2024-02-03T09:49:17.214Z,8.56
2024-02-03T09:54:21.926Z,8.61
2024-02-03T09:59:25.523Z,8.74
2024-02-03T10:04:45.125Z,8.86
2024-02-03T10:15:09.394Z,9.09
2024-02-03T10:20:13.182Z,9.20
2024-02-03T10:25:18.664Z,9.30
2024-02-03T10:30:24.870Z,9.36
2024-02-03T10:35:36.318Z,9.38
2024-02-03T10:40:39.866Z,9.48
2024-02-03T10:45:46.710Z,9.57
2024-02-03T10:50:57.656Z,9.56
2024-02-03T10:56:10.338Z,9.65
2024-02-03T11:01:19.148Z,9.63
2024-02-03T11:06:30.485Z,9.59
2024-02-03T11:11:33.925Z,9.55
2024-02-03T11:16:37.812Z,9.50
2024-02-03T11:21:45.413Z,9.51
2024-02-03T11:27:15.242Z,9.61
2024-02-03T11:32:18.654Z,9.75
2024-02-03T11:37:23.003Z,9.74
2024-02-03T11:42:26.420Z,9.78
2024-02-03T11:47:31.542Z,9.79
2024-02-03T11:52:35.524Z,9.83
2024-02-03T11:57:38.942Z,9.89
2024-02-03T12:02:42.886Z,9.99
2024-02-03T12:07:46.212Z,10.04
2024-02-03T12:12:49.653Z,10.10
2024-02-03T12:17:53.507Z,10.27
2024-02-03T12:22:57.567Z,10.38
2024-02-03T12:28:01.236Z,10.43
2024-02-03T12:33:08.718Z,10.54
2024-02-03T12:38:12.246Z,10.53
2024-02-03T12:43:16.000Z,10.50
2024-02-03T12:48:19.635Z,10.52
2024-02-03T12:53:24.545Z,10.61
2024-02-03T12:58:31.733Z,10.64
2024-02-03T13:03:35.602Z,10.63
2024-02-03T13:08:39.289Z,10.63
2024-02-03T13:13:43.665Z,10.71
2024-02-03T13:18:50.869Z,10.80
2024-02-03T13:23:55.047Z,10.92
2024-02-03T13:28:59.393Z,10.81
2024-02-03T13:34:04.952Z,10.78
2024-02-03T13:39:08.770Z,10.63
2024-02-03T13:44:13.247Z,10.48
2024-02-03T13:49:17.868Z,10.33
2024-02-03T13:54:21.564Z,10.27
2024-02-03T13:59:29.345Z,10.22
2024-02-03T14:04:33.200Z,10.12
2024-02-03T14:09:36.970Z,9.98
2024-02-03T14:14:40.476Z,9.85
2024-02-03T14:19:45.125Z,9.76
2024-02-03T14:24:48.484Z,9.65
2024-02-03T14:29:52.115Z,9.67
2024-02-03T14:34:55.728Z,9.70
2024-02-03T14:39:59.390Z,9.69
2024-02-03T14:45:03.336Z,9.70
2024-02-03T14:50:07.847Z,9.70
2024-02-03T14:55:11.324Z,9.70
2024-02-03T15:00:15.762Z,9.70
2024-02-03T15:05:19.577Z,9.68
2024-02-03T15:10:23.842Z,9.63
2024-02-03T15:15:27.054Z,9.58
2024-02-03T15:20:30.721Z,9.52
2024-02-03T15:25:34.312Z,9.50
2024-02-03T15:30:37.810Z,9.46
2024-02-03T15:35:41.505Z,9.40
2024-02-03T15:40:48.226Z,9.38
2024-02-03T15:45:52.001Z,9.34
2024-02-03T15:50:56.056Z,9.27
2024-02-03T15:55:59.970Z,9.23
2024-02-03T16:01:04.480Z,9.23
2024-02-03T16:06:08.605Z,9.30
2024-02-03T16:11:12.784Z,9.30
2024-02-03T16:16:17.031Z,9.32
2024-02-03T16:21:20.458Z,9.35
2024-02-03T16:26:24.846Z,9.33
2024-02-03T16:31:28.719Z,9.33
2024-02-03T16:36:36.859Z,9.32
2024-02-03T16:41:40.815Z,9.31
2024-02-03T16:46:44.931Z,9.35
2024-02-03T16:51:49.070Z,9.32
2024-02-03T16:56:55.141Z,9.30
2024-02-03T17:02:02.757Z,9.30
2024-02-03T17:07:06.836Z,9.31
2024-02-03T17:12:11.148Z,9.30
2024-02-03T17:17:16.534Z,9.28
2024-02-03T17:22:20.496Z,9.31
2024-02-03T17:27:24.342Z,9.31
2024-02-03T17:32:28.387Z,9.29
2024-02-03T17:37:32.336Z,9.30
2024-02-03T17:42:41.476Z,9.31
2024-02-03T17:47:47.416Z,9.33
2024-02-03T17:52:53.514Z,9.33
2024-02-03T17:58:00.719Z,9.35
2024-02-03T18:03:12.497Z,9.31
2024-02-03T18:08:16.375Z,9.31
2024-02-03T18:13:25.361Z,9.29
2024-02-03T18:18:32.102Z,9.29
2024-02-03T18:23:48.308Z,9.30
2024-02-03T18:28:54.639Z,9.37
2024-02-03T18:34:07.518Z,9.36
2024-02-03T18:39:11.346Z,9.38
2024-02-03T18:44:14.966Z,9.36
2024-02-03T18:49:18.714Z,9.37
2024-02-03T18:54:23.675Z,9.37
2024-02-03T18:59:27.138Z,9.36
2024-02-03T19:04:30.901Z,9.35
2024-02-03T19:09:36.275Z,9.31
2024-02-03T19:14:40.141Z,9.31
2024-02-03T19:19:43.859Z,9.31
2024-02-03T19:24:49.349Z,9.23
2024-02-03T19:29:52.824Z,9.19
2024-02-03T19:34:56.296Z,9.13
2024-02-03T19:39:59.761Z,9.06
2024-02-03T19:45:03.958Z,9.03
2024-02-03T19:50:08.371Z,9.01
2024-02-03T19:55:12.140Z,9.02
2024-02-03T20:00:17.486Z,9.04
2024-02-03T20:05:21.285Z,9.08
2024-02-03T20:10:27.936Z,9.10
2024-02-03T20:15:31.597Z,9.12
2024-02-03T20:20:35.088Z,9.15
2024-02-03T20:25:40.611Z,9.15
2024-02-03T20:30:44.241Z,9.13
2024-02-03T20:35:47.874Z,9.09
2024-02-03T20:40:51.495Z,9.04
2024-02-03T20:45:57.055Z,8.95
2024-02-03T20:51:00.886Z,8.85
2024-02-03T20:56:05.072Z,8.78
2024-02-03T21:01:08.617Z,8.68
2024-02-03T21:06:12.511Z,8.62
2024-02-03T21:11:16.008Z,8.61
2024-02-03T21:16:21.617Z,8.62
2024-02-03T21:21:41.368Z,8.67
2024-02-03T21:26:49.175Z,8.72
2024-02-03T21:31:52.650Z,8.72
2024-02-03T21:36:56.220Z,8.73
2024-02-03T21:42:00.572Z,8.73
2024-02-03T21:47:04.438Z,8.73
2024-02-03T21:52:07.845Z,8.68
2024-02-03T21:57:11.306Z,8.64
2024-02-03T22:02:14.911Z,8.60
2024-02-03T22:07:18.714Z,8.45
2024-02-03T22:12:22.212Z,8.26
2024-02-03T22:17:25.879Z,8.10
2024-02-03T22:22:29.576Z,8.05
2024-02-03T22:27:36.155Z,8.01
2024-02-03T22:32:40.464Z,8.01
2024-02-03T22:37:47.965Z,7.98
2024-02-03T22:42:51.580Z,8.09
2024-02-03T22:47:55.675Z,8.13
2024-02-03T22:52:59.850Z,8.10
2024-02-03T22:58:04.601Z,8.09
2024-02-03T23:03:11.038Z,8.05
2024-02-03T23:08:14.983Z,8.08
2024-02-03T23:13:18.276Z,8.11
2024-02-03T23:18:21.926Z,8.14
2024-02-03T23:23:26.133Z,8.19
2024-02-03T23:28:31.730Z,8.28
2024-02-03T23:33:38.150Z,8.31
2024-02-03T23:38:44.851Z,8.40
2024-02-03T23:43:48.470Z,8.48
2024-02-03T23:48:51.943Z,8.55
2024-02-03T23:53:59.585Z,8.56
2024-02-03T23:59:03.031Z,8.58
